createdAt,value
2023-04-16T00:01:55.919Z,99932.58
2023-04-16T00:04:40.108Z,99940.16
2023-04-16T00:07:14.045Z,99941.05
2023-04-16T00:09:51.332Z,99939.15
2023-04-16T00:12:34.764Z,99943.25
2023-04-16T00:14:58.248Z,99940.52
2023-04-16T00:17:25.314Z,99935.71
2023-04-16T00:19:59.083Z,99932.80
2023-04-16T00:22:35.455Z,99929.56
2023-04-16T00:25:10.401Z,99933.39
2023-04-16T00:27:34.051Z,99928.20
2023-04-16T00:30:08.952Z,99930.23
2023-04-16T00:32:51.652Z,99935.95
2023-04-16T00:35:19.130Z,99935.99
2023-04-16T00:37:54.496Z,99940.02
2023-04-16T00:40:38.231Z,99942.19
2023-04-16T00:43:02.316Z,99941.02
2023-04-16T00:45:31.919Z,99940.77
2023-04-16T00:48:05.953Z,99943.06
2023-04-16T00:50:38.890Z,99937.56
2023-04-16T00:53:22.351Z,99931.91
2023-04-16T00:55:57.439Z,99934.19
2023-04-16T00:58:31.538Z,99936.33
2023-04-16T01:00:55.881Z,99936.27
2023-04-16T01:03:42.914Z,99934.80
2023-04-16T01:06:07.250Z,99935.17
2023-04-16T01:08:30.961Z,99935.40
2023-04-16T01:11:15.754Z,99940.85
2023-04-16T01:13:42.211Z,99942.49
2023-04-16T01:16:12.162Z,99941.54
2023-04-16T01:18:49.881Z,99942.50
2023-04-16T01:21:33.455Z,99944.52
2023-04-16T01:24:05.470Z,99945.41
2023-04-16T01:26:36.488Z,99943.08
2023-04-16T01:29:20.558Z,99941.59
2023-04-16T01:32:05.949Z,99938.25
2023-04-16T01:34:43.975Z,99938.66
2023-04-16T01:37:28.233Z,99940.63
2023-04-16T01:40:09.299Z,99941.31
2023-04-16T01:42:32.764Z,99942.38
2023-04-16T01:44:56.607Z,99942.36
2023-04-16T01:47:20.277Z,99943.23
2023-04-16T01:49:45.028Z,99950.68
2023-04-16T01:52:08.446Z,99939.56
2023-04-16T01:54:32.211Z,99942.78
2023-04-16T01:57:06.356Z,99946.57
2023-04-16T01:59:50.470Z,99944.08
2023-04-16T02:02:35.544Z,99944.48
2023-04-16T02:05:19.836Z,99949.23
2023-04-16T02:07:54.837Z,99953.66
2023-04-16T02:10:18.368Z,99956.67
2023-04-16T02:12:51.426Z,99958.94
2023-04-16T02:15:15.916Z,99960.52
2023-04-16T02:17:39.854Z,99966.48
2023-04-16T02:20:10.288Z,99971.45
2023-04-16T02:22:48.777Z,99970.45
2023-04-16T02:25:16.707Z,99970.56
2023-04-16T02:27:40.570Z,99972.08
2023-04-16T02:30:17.931Z,99970.30
2023-04-16T02:32:43.213Z,99968.10
2023-04-16T02:35:10.326Z,99967.10
2023-04-16T02:37:36.752Z,99968.39
2023-04-16T02:40:14.562Z,99972.00
2023-04-16T02:42:49.636Z,99974.92
2023-04-16T02:45:13.867Z,99980.41
2023-04-16T02:47:37.533Z,99991.85
2023-04-16T02:50:07.989Z,99987.72
2023-04-16T02:52:42.893Z,99993.59
2023-04-16T02:55:27.890Z,99998.05
2023-04-16T02:57:53.720Z,99999.52
2023-04-16T03:00:17.937Z,100002.80
2023-04-16T03:02:50.743Z,100003.63
2023-04-16T03:05:14.627Z,100002.57
2023-04-16T03:07:50.023Z,100005.84
2023-04-16T03:10:35.606Z,100007.23
2023-04-16T03:13:02.227Z,100010.06
2023-04-16T03:15:39.464Z,100017.34
2023-04-16T03:18:17.016Z,100014.34
2023-04-16T03:20:41.299Z,100016.17
2023-04-16T03:23:25.777Z,100016.25
2023-04-16T03:25:58.722Z,100014.65
2023-04-16T03:28:42.436Z,100008.51
2023-04-16T03:31:26.740Z,100007.98
2023-04-16T03:33:55.987Z,100013.69
2023-04-16T03:36:19.480Z,100010.25
2023-04-16T03:38:50.596Z,100010.59
2023-04-16T03:41:19.495Z,100014.08
2023-04-16T03:43:54.876Z,100014.53
2023-04-16T03:46:18.837Z,100012.66
2023-04-16T03:48:45.490Z,100019.39
2023-04-16T03:51:09.567Z,100019.60
2023-04-16T03:53:33.610Z,100022.55
2023-04-16T03:56:00.117Z,100027.05
2023-04-16T03:58:24.477Z,100028.81
2023-04-16T04:00:48.320Z,100026.41
2023-04-16T04:03:12.709Z,100031.95
2023-04-16T04:05:38.914Z,100030.75
2023-04-16T04:08:02.600Z,100029.54
2023-04-16T04:10:27.263Z,100033.11
2023-04-16T04:12:54.009Z,100030.63
2023-04-16T04:15:17.705Z,100029.14
2023-04-16T04:17:41.290Z,100033.77
2023-04-16T04:20:25.561Z,100036.11
2023-04-16T04:23:09.251Z,100036.44
2023-04-16T04:25:35.972Z,100041.05
2023-04-16T04:28:19.818Z,100043.32
2023-04-16T04:30:55.892Z,100044.52
2023-04-16T04:33:40.033Z,100050.42
2023-04-16T04:36:07.195Z,100055.45
2023-04-16T04:38:50.911Z,100055.93
2023-04-16T04:41:29.223Z,100055.17
2023-04-16T04:43:53.405Z,100054.92
2023-04-16T04:46:17.109Z,100056.19
2023-04-16T04:48:41.201Z,100058.67
2023-04-16T04:51:05.644Z,100059.56
2023-04-16T04:53:29.179Z,100058.48
2023-04-16T04:55:55.629Z,100060.41
2023-04-16T04:58:33.287Z,100065.80
2023-04-16T05:01:06.591Z,100067.94
2023-04-16T05:03:33.762Z,100069.26
2023-04-16T05:06:18.142Z,100070.89
2023-04-16T05:09:01.880Z,100070.43
2023-04-16T05:11:46.129Z,100075.18
2023-04-16T05:14:09.649Z,100076.66
2023-04-16T05:16:35.912Z,100085.05
2023-04-16T05:18:58.709Z,100085.50
2023-04-16T05:21:22.247Z,100084.09
2023-04-16T05:23:45.872Z,100081.70
2023-04-16T05:26:09.505Z,100083.25
2023-04-16T05:28:45.944Z,100085.29
2023-04-16T05:31:12.943Z,100086.29
2023-04-16T05:33:57.012Z,100084.84
2023-04-16T05:36:41.289Z,100091.81
2023-04-16T05:39:25.063Z,100096.77
2023-04-16T05:41:54.329Z,100100.52
2023-04-16T05:44:20.860Z,100101.73
2023-04-16T05:46:53.539Z,100099.61
2023-04-16T05:49:28.678Z,100094.33
2023-04-16T05:52:12.554Z,100097.27
2023-04-16T05:54:57.600Z,100097.89
2023-04-16T05:57:32.857Z,100100.66
2023-04-16T06:00:17.689Z,100112.02
2023-04-16T06:02:46.884Z,100113.86
2023-04-16T06:05:22.370Z,100119.48
2023-04-16T06:08:06.624Z,100119.48
2023-04-16T06:10:35.294Z,100122.39
2023-04-16T06:13:01.839Z,100128.05
2023-04-16T06:15:46.233Z,100124.61
2023-04-16T06:18:30.124Z,100126.19
2023-04-16T06:21:13.327Z,100127.14
2023-04-16T06:23:57.042Z,100129.77
2023-04-16T06:26:21.207Z,100132.50
2023-04-16T06:28:48.102Z,100133.08
2023-04-16T06:31:32.248Z,100133.98
2023-04-16T06:34:16.804Z,100140.15
2023-04-16T06:36:40.897Z,100140.70
2023-04-16T06:39:06.039Z,100138.56
2023-04-16T06:41:39.997Z,100138.98
2023-04-16T06:44:18.725Z,100131.79
2023-04-16T06:47:02.979Z,100133.95
2023-04-16T06:49:29.024Z,100140.86
2023-04-16T06:52:13.094Z,100138.61
2023-04-16T06:54:42.884Z,100134.14
2023-04-16T06:57:10.570Z,100139.83
2023-04-16T06:59:54.950Z,100137.99
2023-04-16T07:02:18.921Z,100141.71
2023-04-16T07:04:48.246Z,100139.40
2023-04-16T07:07:12.019Z,100143.70
2023-04-16T07:09:44.621Z,100144.91
2023-04-16T07:12:29.150Z,100148.40
2023-04-16T07:15:13.006Z,100150.67
2023-04-16T07:17:57.423Z,100148.83
2023-04-16T07:20:28.603Z,100154.44
2023-04-16T07:22:52.268Z,100152.35
2023-04-16T07:25:25.247Z,100155.36
2023-04-16T07:28:00.091Z,100161.03
2023-04-16T07:30:33.846Z,100164.23
2023-04-16T07:33:08.745Z,100168.66
2023-04-16T07:35:36.084Z,100173.21
2023-04-16T07:38:08.652Z,100180.23
2023-04-16T07:40:45.448Z,100177.05
2023-04-16T07:43:09.361Z,100178.86
2023-04-16T07:45:32.899Z,100181.84
2023-04-16T07:47:57.003Z,100182.77
2023-04-16T07:50:43.008Z,100190.96
2023-04-16T07:53:07.325Z,100196.41
2023-04-16T07:55:51.132Z,100194.81
2023-04-16T07:58:15.318Z,100194.64
2023-04-16T08:00:50.783Z,100196.82
2023-04-16T08:03:17.880Z,100199.53
2023-04-16T08:05:52.744Z,100203.74
2023-04-16T08:08:20.110Z,100206.13
2023-04-16T08:10:55.361Z,100211.86
2023-04-16T08:13:31.758Z,100217.09
2023-04-16T08:15:56.783Z,100219.33
2023-04-16T08:18:20.507Z,100222.45
2023-04-16T08:20:57.175Z,100223.50
2023-04-16T08:23:24.228Z,100225.03
2023-04-16T08:26:08.170Z,100224.79
2023-04-16T08:28:41.774Z,100224.91
2023-04-16T08:31:05.803Z,100224.70
2023-04-16T08:33:29.665Z,100224.74
2023-04-16T08:36:13.365Z,100227.92
2023-04-16T08:38:37.012Z,100230.40
2023-04-16T08:41:05.385Z,100230.51
2023-04-16T08:43:50.889Z,100232.10
2023-04-16T08:46:16.805Z,100231.71
2023-04-16T08:48:44.175Z,100233.29
2023-04-16T08:51:10.745Z,100232.84
2023-04-16T08:53:48.302Z,100236.88
2023-04-16T08:56:13.145Z,100237.73
2023-04-16T08:58:40.459Z,100234.89
2023-04-16T09:01:04.833Z,100235.67
2023-04-16T09:03:29.530Z,100234.46
2023-04-16T09:05:54.991Z,100235.66
2023-04-16T09:08:19.559Z,100238.21
2023-04-16T09:10:43.956Z,100235.61
2023-04-16T09:13:08.775Z,100237.55
2023-04-16T09:15:35.146Z,100237.79
2023-04-16T09:18:01.909Z,100237.73
2023-04-16T09:20:25.956Z,100235.86
2023-04-16T09:22:51.977Z,100244.01
2023-04-16T09:25:16.195Z,100242.98
2023-04-16T09:27:43.741Z,100246.38
2023-04-16T09:30:21.879Z,100244.69
2023-04-16T09:32:45.412Z,100247.59
2023-04-16T09:35:09.703Z,100248.35
2023-04-16T09:37:33.974Z,100251.08
2023-04-16T09:39:59.492Z,100257.58
2023-04-16T09:42:24.870Z,100260.73
2023-04-16T09:44:51.774Z,100264.10
2023-04-16T09:47:15.496Z,100263.23
2023-04-16T09:50:00.151Z,100263.58
2023-04-16T09:52:26.067Z,100264.42
2023-04-16T09:54:51.583Z,100260.61
2023-04-16T09:57:17.974Z,100262.98
2023-04-16T09:59:40.712Z,100260.77
2023-04-16T10:02:14.632Z,100264.17
2023-04-16T10:04:47.867Z,100268.98
2023-04-16T10:07:22.179Z,100270.09
2023-04-16T10:09:49.364Z,100273.89
2023-04-16T10:12:15.586Z,100272.89
2023-04-16T10:14:39.825Z,100272.40
2023-04-16T10:17:24.312Z,100274.55
2023-04-16T10:20:09.751Z,100278.35
2023-04-16T10:22:45.956Z,100276.89
2023-04-16T10:25:13.896Z,100280.52
2023-04-16T10:27:41.376Z,100282.50
2023-04-16T10:30:27.057Z,100285.31
2023-04-16T10:32:53.352Z,100288.45
2023-04-16T10:35:20.251Z,100292.81
2023-04-16T10:37:44.848Z,100290.14
2023-04-16T10:40:24.791Z,100290.18
2023-04-16T10:42:55.608Z,100293.46
2023-04-16T10:45:27.240Z,100294.45
2023-04-16T10:47:50.818Z,100296.73
2023-04-16T10:50:17.181Z,100300.30
2023-04-16T10:52:40.879Z,100296.91
2023-04-16T10:55:05.850Z,100297.66
2023-04-16T10:57:30.509Z,100294.42
2023-04-16T10:59:55.620Z,100298.59
2023-04-16T11:02:29.627Z,100298.37
2023-04-16T11:04:57.717Z,100297.60
2023-04-16T11:07:31.144Z,100299.70
2023-04-16T11:09:57.019Z,100296.05
2023-04-16T11:12:22.227Z,100301.30
2023-04-16T11:14:48.715Z,100300.90
2023-04-16T11:17:12.322Z,100301.54
2023-04-16T11:19:39.153Z,100303.30
2023-04-16T11:22:03.407Z,100303.98
2023-04-16T11:24:30.673Z,100314.38
2023-04-16T11:26:54.092Z,100313.47
2023-04-16T11:29:17.893Z,100309.08
2023-04-16T11:31:41.560Z,100309.72
2023-04-16T11:34:08.205Z,100311.82
2023-04-16T11:36:52.746Z,100313.58
2023-04-16T11:39:16.337Z,100312.50
2023-04-16T11:41:43.964Z,100314.09
2023-04-16T11:44:19.415Z,100316.20
2023-04-16T11:46:53.206Z,100315.83
2023-04-16T11:49:17.039Z,100317.58
2023-04-16T11:51:41.232Z,100314.92
2023-04-16T11:54:06.288Z,100312.63
2023-04-16T11:56:35.190Z,100313.66
2023-04-16T11:59:09.198Z,100309.77
2023-04-16T12:01:34.182Z,100304.56
2023-04-16T12:04:02.702Z,100300.21
2023-04-16T12:06:27.029Z,100299.69
2023-04-16T12:08:50.779Z,100297.86
2023-04-16T12:11:14.309Z,100293.48
2023-04-16T12:13:39.265Z,100293.88
2023-04-16T12:16:03.356Z,100287.65
2023-04-16T12:18:27.153Z,100287.72
2023-04-16T12:20:51.209Z,100292.07
2023-04-16T12:23:24.647Z,100292.19
2023-04-16T12:25:49.461Z,100289.40
2023-04-16T12:28:13.377Z,100286.34
2023-04-16T12:30:50.260Z,100285.00
2023-04-16T12:33:18.478Z,100287.52
2023-04-16T12:35:44.241Z,100286.91
2023-04-16T12:38:08.040Z,100286.19
2023-04-16T12:40:31.698Z,100282.27
2023-04-16T12:42:55.197Z,100282.58
2023-04-16T12:45:18.752Z,100279.34
2023-04-16T12:47:42.315Z,100276.86
2023-04-16T12:50:07.429Z,100277.57
2023-04-16T12:52:30.903Z,100274.73
2023-04-16T12:54:54.624Z,100276.23
2023-04-16T12:57:18.084Z,100273.63
2023-04-16T12:59:41.770Z,100270.90
2023-04-16T13:02:05.680Z,100266.54
2023-04-16T13:04:29.838Z,100270.68
2023-04-16T13:06:53.385Z,100267.61
2023-04-16T13:09:18.764Z,100263.61
2023-04-16T13:11:42.329Z,100266.99
2023-04-16T13:14:05.750Z,100267.17
2023-04-16T13:16:29.500Z,100272.70
2023-04-16T13:18:53.162Z,100271.38
2023-04-16T13:21:16.674Z,100267.63
2023-04-16T13:23:40.386Z,100266.27
2023-04-16T13:26:04.431Z,100266.50
2023-04-16T13:28:28.193Z,100261.95
2023-04-16T13:30:52.095Z,100265.29
2023-04-16T13:33:15.763Z,100266.69
2023-04-16T13:35:39.334Z,100267.94
2023-04-16T13:38:03.072Z,100270.27
2023-04-16T13:40:26.689Z,100274.17
2023-04-16T13:42:50.750Z,100277.06
2023-04-16T13:45:14.617Z,100279.13
2023-04-16T13:47:41.515Z,100280.02
2023-04-16T13:50:06.736Z,100276.94
2023-04-16T13:52:30.510Z,100275.36
2023-04-16T13:54:53.995Z,100278.73
2023-04-16T13:57:17.788Z,100280.06
2023-04-16T13:59:41.639Z,100281.24
2023-04-16T14:02:05.461Z,100277.80
2023-04-16T14:04:31.526Z,100273.35
2023-04-16T14:06:55.611Z,100273.41
2023-04-16T14:09:19.254Z,100274.51
2023-04-16T14:11:43.235Z,100276.66
2023-04-16T14:14:06.724Z,100273.50
2023-04-16T14:16:30.419Z,100274.81
2023-04-16T14:19:02.024Z,100272.02
2023-04-16T14:21:26.545Z,100272.64
2023-04-16T14:23:50.704Z,100272.21
2023-04-16T14:26:14.147Z,100270.11
2023-04-16T14:28:38.763Z,100271.80
2023-04-16T14:31:04.858Z,100270.49
2023-04-16T14:33:28.440Z,100274.48
2023-04-16T14:35:51.932Z,100272.45
2023-04-16T14:38:15.728Z,100272.92
2023-04-16T14:40:48.357Z,100273.34
2023-04-16T14:43:12.121Z,100276.18
2023-04-16T14:45:49.456Z,100277.81
2023-04-16T14:48:12.962Z,100280.04
2023-04-16T14:50:37.358Z,100282.34
2023-04-16T14:53:01.540Z,100282.67
2023-04-16T14:55:25.144Z,100287.78
2023-04-16T14:57:48.775Z,100291.30
2023-04-16T15:00:18.118Z,100290.53
2023-04-16T15:02:41.969Z,100293.70
2023-04-16T15:05:09.161Z,100299.14
2023-04-16T15:07:33.077Z,100304.67
2023-04-16T15:09:56.756Z,100305.55
2023-04-16T15:12:20.348Z,100304.66
2023-04-16T15:14:43.803Z,100301.27
2023-04-16T15:17:07.821Z,100299.06
2023-04-16T15:19:31.372Z,100302.38
2023-04-16T15:21:55.445Z,100301.41
2023-04-16T15:24:18.999Z,100301.75
2023-04-16T15:26:42.742Z,100302.44
2023-04-16T15:29:06.817Z,100307.46
2023-04-16T15:31:30.584Z,100301.23
2023-04-16T15:33:55.686Z,100305.14
2023-04-16T15:36:19.374Z,100305.15
2023-04-16T15:38:42.852Z,100309.20
2023-04-16T15:41:06.493Z,100307.81
2023-04-16T15:43:30.177Z,100310.49
2023-04-16T15:45:53.988Z,100316.45
2023-04-16T15:48:17.612Z,100318.01
2023-04-16T15:50:41.453Z,100314.95
2023-04-16T15:53:08.576Z,100315.23
2023-04-16T15:55:32.130Z,100316.00
2023-04-16T15:57:56.178Z,100317.81
2023-04-16T16:00:20.865Z,100317.54
2023-04-16T16:02:46.216Z,100322.04
2023-04-16T16:05:11.752Z,100318.67
2023-04-16T16:07:36.879Z,100322.38
2023-04-16T16:10:00.519Z,100326.98
2023-04-16T16:12:24.294Z,100329.37
2023-04-16T16:14:48.717Z,100332.64
2023-04-16T16:17:15.451Z,100333.93
2023-04-16T16:19:39.216Z,100338.19
2023-04-16T16:22:03.050Z,100342.85
2023-04-16T16:24:27.703Z,100345.37
2023-04-16T16:27:01.012Z,100351.42
2023-04-16T16:29:25.021Z,100349.46
2023-04-16T16:31:48.650Z,100352.29
2023-04-16T16:34:21.398Z,100351.08
2023-04-16T16:36:47.269Z,100354.80
2023-04-16T16:39:11.683Z,100356.02
2023-04-16T16:41:41.258Z,100358.02
2023-04-16T16:44:05.802Z,100355.77
2023-04-16T16:46:29.208Z,100363.48
2023-04-16T16:48:52.854Z,100367.92
2023-04-16T16:51:18.616Z,100369.66
2023-04-16T16:53:42.419Z,100373.20
2023-04-16T16:56:06.541Z,100377.36
2023-04-16T16:58:30.070Z,100378.53
2023-04-16T17:00:53.591Z,100381.06
2023-04-16T17:03:17.493Z,100383.00
2023-04-16T17:05:41.180Z,100385.48
2023-04-16T17:08:06.009Z,100388.34
2023-04-16T17:10:29.858Z,100388.56
2023-04-16T17:12:53.595Z,100391.77
2023-04-16T17:15:21.641Z,100394.45
2023-04-16T17:17:45.952Z,100397.48
2023-04-16T17:20:11.996Z,100397.77
2023-04-16T17:22:36.177Z,100400.64
2023-04-16T17:25:10.165Z,100401.04
2023-04-16T17:27:38.977Z,100403.73
2023-04-16T17:30:08.134Z,100411.08
2023-04-16T17:32:32.285Z,100416.85
2023-04-16T17:34:56.706Z,100417.41
2023-04-16T17:37:20.203Z,100419.41
2023-04-16T17:39:43.878Z,100418.55
2023-04-16T17:42:07.850Z,100421.89
2023-04-16T17:44:31.929Z,100423.83
2023-04-16T17:46:56.824Z,100428.77
2023-04-16T17:49:20.579Z,100428.55
2023-04-16T17:51:44.269Z,100428.88
2023-04-16T17:54:08.990Z,100427.86
2023-04-16T17:56:32.945Z,100427.67
2023-04-16T17:58:56.907Z,100432.93
2023-04-16T18:01:41.491Z,100439.44
2023-04-16T18:04:05.402Z,100437.80
2023-04-16T18:06:31.585Z,100441.48
2023-04-16T18:09:05.156Z,100443.59
2023-04-16T18:11:31.042Z,100447.58
2023-04-16T18:13:54.765Z,100447.92
2023-04-16T18:16:18.592Z,100451.58
2023-04-16T18:18:44.675Z,100450.95
2023-04-16T18:21:11.691Z,100455.66
2023-04-16T18:23:38.200Z,100455.14
2023-04-16T18:26:22.941Z,100463.52
2023-04-16T18:28:50.572Z,100467.29
2023-04-16T18:31:20.673Z,100465.00
2023-04-16T18:33:56.714Z,100467.58
2023-04-16T18:36:35.056Z,100470.38
2023-04-16T18:39:19.190Z,100465.64
2023-04-16T18:41:47.024Z,100466.98
2023-04-16T18:44:10.655Z,100461.20
2023-04-16T18:46:34.447Z,100467.00
2023-04-16T18:49:01.000Z,100470.21
2023-04-16T18:51:24.667Z,100472.77
2023-04-16T18:53:48.272Z,100471.64
2023-04-16T18:56:12.430Z,100477.63
2023-04-16T18:58:36.104Z,100476.34
2023-04-16T19:01:00.050Z,100476.06
2023-04-16T19:03:27.528Z,100473.91
2023-04-16T19:05:52.271Z,100474.00
2023-04-16T19:08:15.718Z,100472.90
2023-04-16T19:10:39.505Z,100471.94
2023-04-16T19:13:06.330Z,100473.56
2023-04-16T19:15:31.640Z,100473.11
2023-04-16T19:17:59.655Z,100473.57
2023-04-16T19:20:23.277Z,100477.52
2023-04-16T19:22:46.773Z,100482.81
2023-04-16T19:25:13.191Z,100476.13
2023-04-16T19:27:36.593Z,100479.17
2023-04-16T19:30:00.427Z,100485.88
2023-04-16T19:32:44.543Z,100480.46
2023-04-16T19:35:29.626Z,100479.69
2023-04-16T19:38:13.753Z,100480.67
2023-04-16T19:40:37.697Z,100479.55
2023-04-16T19:43:01.329Z,100481.71
2023-04-16T19:45:46.379Z,100475.52
2023-04-16T19:48:10.709Z,100471.77
2023-04-16T19:50:34.356Z,100468.91
2023-04-16T19:53:18.350Z,100468.80
2023-04-16T19:55:52.160Z,100465.41
2023-04-16T19:58:19.339Z,100466.82
2023-04-16T20:01:05.640Z,100470.16
2023-04-16T20:03:29.403Z,100467.45
2023-04-16T20:05:56.047Z,100466.63
2023-04-16T20:08:31.432Z,100470.13
2023-04-16T20:10:57.517Z,100471.05
2023-04-16T20:13:21.184Z,100472.16
2023-04-16T20:15:45.033Z,100472.55
2023-04-16T20:18:12.408Z,100475.58
2023-04-16T20:20:36.440Z,100477.52
2023-04-16T20:23:00.603Z,100479.48
2023-04-16T20:25:25.612Z,100476.05
2023-04-16T20:27:49.234Z,100477.84
2023-04-16T20:30:14.875Z,100474.09
2023-04-16T20:32:58.586Z,100478.83
2023-04-16T20:35:25.561Z,100479.73
2023-04-16T20:38:00.675Z,100485.67
2023-04-16T20:40:30.050Z,100484.50
2023-04-16T20:43:01.018Z,100487.33
2023-04-16T20:45:24.923Z,100489.46
2023-04-16T20:47:48.404Z,100486.40
2023-04-16T20:50:32.536Z,100483.67
2023-04-16T20:52:58.849Z,100483.19
2023-04-16T20:55:25.000Z,100488.23
2023-04-16T20:57:48.721Z,100486.91
2023-04-16T21:00:31.147Z,100487.10
2023-04-16T21:02:55.220Z,100484.73
2023-04-16T21:05:20.732Z,100482.36
2023-04-16T21:07:44.221Z,100481.21
2023-04-16T21:10:10.569Z,100476.05
2023-04-16T21:12:33.987Z,100475.96
2023-04-16T21:14:57.616Z,100477.02
2023-04-16T21:17:21.545Z,100476.54
2023-04-16T21:19:45.074Z,100475.38
2023-04-16T21:22:08.771Z,100471.09
2023-04-16T21:24:32.872Z,100473.02
2023-04-16T21:26:56.795Z,100475.46
2023-04-16T21:29:26.235Z,100472.23
2023-04-16T21:31:50.380Z,100473.13
2023-04-16T21:34:15.594Z,100473.48
2023-04-16T21:36:59.727Z,100473.67
2023-04-16T21:39:43.597Z,100474.85
2023-04-16T21:42:27.501Z,100473.27
2023-04-16T21:45:13.813Z,100478.75
2023-04-16T21:47:57.815Z,100478.52
2023-04-16T21:50:41.942Z,100479.88
2023-04-16T21:53:17.850Z,100479.86
2023-04-16T21:55:41.643Z,100481.95
2023-04-16T21:58:25.578Z,100481.06
2023-04-16T22:01:10.952Z,100480.35
2023-04-16T22:03:39.599Z,100476.56
2023-04-16T22:06:03.665Z,100480.04
2023-04-16T22:08:27.321Z,100478.48
2023-04-16T22:10:51.637Z,100482.11
2023-04-16T22:13:17.312Z,100478.66
2023-04-16T22:15:41.682Z,100477.82
2023-04-16T22:18:15.104Z,100477.84
2023-04-16T22:20:59.313Z,100476.83
2023-04-16T22:23:36.808Z,100479.62
2023-04-16T22:26:12.187Z,100480.70
2023-04-16T22:28:36.255Z,100478.84
2023-04-16T22:31:20.359Z,100479.91
2023-04-16T22:33:53.187Z,100479.77
2023-04-16T22:36:16.839Z,100480.48
2023-04-16T22:38:43.493Z,100476.52
2023-04-16T22:41:11.500Z,100481.55
2023-04-16T22:43:38.415Z,100478.11
2023-04-16T22:46:04.125Z,100480.02
2023-04-16T22:48:35.539Z,100480.73
2023-04-16T22:51:02.418Z,100485.94
2023-04-16T22:53:26.099Z,100485.42
2023-04-16T22:56:02.397Z,100489.07
2023-04-16T22:58:48.448Z,100484.60
2023-04-16T23:01:33.233Z,100481.03
2023-04-16T23:04:15.557Z,100476.73
2023-04-16T23:06:59.731Z,100479.02
2023-04-16T23:09:25.384Z,100475.25
2023-04-16T23:11:57.474Z,100475.95
2023-04-16T23:14:25.928Z,100470.58
2023-04-16T23:16:52.421Z,100478.03
2023-04-16T23:19:36.917Z,100476.13
2023-04-16T23:22:20.703Z,100477.64
2023-04-16T23:24:57.134Z,100477.05
2023-04-16T23:27:20.696Z,100467.70
2023-04-16T23:29:53.165Z,100467.46
2023-04-16T23:32:31.454Z,100463.23
2023-04-16T23:34:58.595Z,100464.73
2023-04-16T23:37:24.038Z,100468.85
2023-04-16T23:39:51.540Z,100465.68
2023-04-16T23:42:24.387Z,100463.38
2023-04-16T23:44:47.750Z,100462.80
2023-04-16T23:47:14.283Z,100463.09
2023-04-16T23:49:39.894Z,100461.98
2023-04-16T23:52:06.984Z,100456.58
2023-04-16T23:54:30.830Z,100456.20
2023-04-16T23:57:03.206Z,100459.59
2023-04-16T23:59:26.795Z,100461.30
